Time;durP1;ratioP1;P1;durP2;ratioP2;P2;SDS_P1;SDS_P2;PMS_P1;PMS_P2;Temp;Humidity;BMP_temperature;BMP_pressure;BME280_temperature;BME280_humidity;BME280_pressure;Samples;Min_cycle;Max_cycle;Signal;HPM_P1;HPM_P2
2021/06/06 00:01:37;;;;;;;;;;;;;;;;;;5054979;28;19925;-71
2021/06/06 00:04:03;;;;;;;;;;;;;;;;;;5055478;28;19960;-70
2021/06/06 00:06:30;;;;;;;;;;;;;;;;;;5053729;28;20023;-71
2021/06/06 00:08:56;;;;;;;;;;;;;;;;;;5055627;28;20015;-72
2021/06/06 00:11:23;;;;;;;;;;;;;;;;;;5054289;28;19925;-71
2021/06/06 00:13:49;;;;;;;;;;;;;;;;;;5054095;28;19933;-71
2021/06/06 00:16:16;;;;;;;;;;;;;;;;;;5054193;28;20300;-70
2021/06/06 00:18:42;;;;;;;;;;;;;;;;;;5054957;28;19979;-71
2021/06/06 00:21:09;;;;;;;;;;;;;;;;;;5058133;28;20019;-71
2021/06/06 00:23:35;;;;;;;;;;;;;;;;;;5057766;28;20428;-71
2021/06/06 00:26:02;;;;;;;;;;;;;;;;;;5056967;28;19925;-70
2021/06/06 00:28:30;;;;;;;;;;;;;;;;;;5057566;28;20397;-71
2021/06/06 00:30:57;;;;;;;;;;;;;;;;;;5055037;28;19929;-69
2021/06/06 00:33:23;;;;;;;;;;;;;;;;;;5055351;28;19970;-71
2021/06/06 00:35:50;;;;;;;;;;;;;;;;;;5062820;28;19924;-71
2021/06/06 00:38:16;;;;;;;;;;;;;;;;;;5058343;28;19936;-71
2021/06/06 00:40:43;;;;;;;;;;;;;;;;;;5055848;28;19932;-71
2021/06/06 00:43:09;;;;;;;;;;;;;;;;;;5056125;28;20019;-71
2021/06/06 00:45:36;;;;;;;;;;;;;;;;;;5053849;28;19959;-72
2021/06/06 00:48:02;;;;;;;;;;;;;;;;;;5054763;28;20370;-69
2021/06/06 00:50:29;;;;;;;;;;;;;;;;;;5053038;28;20023;-69
2021/06/06 00:52:55;;;;;;;;;;;;;;;;;;5054606;28;19928;-70
2021/06/06 00:55:22;;;;;;;;;;;;;;;;;;5055488;28;20337;-72
2021/06/06 00:57:48;;;;;;;;;;;;;;;;;;5054034;28;19925;-71
2021/06/06 01:00:15;;;;;;;;;;;;;;;;;;5053271;28;20010;-70
2021/06/06 01:02:42;;;;;;;;;;;;;;;;;;5053594;28;20398;-71
2021/06/06 01:05:08;;;;;;;;;;;;;;;;;;5053847;28;20023;-72
2021/06/06 01:07:35;;;;;;;;;;;;;;;;;;5053251;28;19987;-71
2021/06/06 01:10:01;;;;;;;;;;;;;;;;;;5052840;28;19925;-72
2021/06/06 01:12:28;;;;;;;;;;;;;;;;;;5053455;28;20017;-70
2021/06/06 01:14:54;;;;;;;;;;;;;;;;;;5052753;28;19935;-72
2021/06/06 01:17:21;;;;;;;;;;;;;;;;;;5052839;28;19925;-70
2021/06/06 01:19:47;;;;;;;;;;;;;;;;;;5052868;28;19924;-71
2021/06/06 01:22:14;;;;;;;;;;;;;;;;;;5052618;28;19929;-71
2021/06/06 01:24:40;;;;;;;;;;;;;;;;;;5053799;28;19996;-71
2021/06/06 01:27:07;;;;;;;;;;;;;;;;;;5054571;28;20402;-71
2021/06/06 01:29:33;;;;;;;;;;;;;;;;;;5054641;28;20062;-70
2021/06/06 01:32:00;;;;;;;;;;;;;;;;;;5052465;28;20023;-70
2021/06/06 01:34:26;;;;;;;;;;;;;;;;;;5053384;28;20420;-69
2021/06/06 01:36:53;;;;;;;;;;;;;;;;;;5052451;28;20419;-71
2021/06/06 01:39:20;;;;;;;;;;;;;;;;;;5052617;28;20440;-72
2021/06/06 01:41:47;;;;;;;;;;;;;;;;;;5052636;28;19991;-71
2021/06/06 01:44:13;;;;;;;;;;;;;;;;;;5053803;28;19955;-71
2021/06/06 01:46:40;;;;;;;;;;;;;;;;;;5052841;28;19924;-71
2021/06/06 01:49:09;;;;;;;;;;;;;;;;;;5053344;28;19924;-71
2021/06/06 01:51:35;;;;;;;;;;;;;;;;;;5045389;28;19925;-71
2021/06/06 01:54:02;;;;;;;;;;;;;;;;;;5052314;28;19973;-71
2021/06/06 01:56:28;;;;;;;;;;;;;;;;;;5050428;28;20402;-71
2021/06/06 01:58:55;;;;;;;;;;;;;;;;;;5052196;28;19928;-71
2021/06/06 02:01:21;;;;;;;;;;;;;;;;;;5050929;28;20034;-71
2021/06/06 02:03:48;;;;;;;;;;;;;;;;;;5051873;28;19931;-72
2021/06/06 02:06:14;;;;;;;;;;;;;;;;;;5052966;28;19948;-72
2021/06/06 02:08:41;;;;;;;;;;;;;;;;;;5051465;28;19935;-71
2021/06/06 02:11:07;;;;;;;;;;;;;;;;;;5051048;28;20444;-72
2021/06/06 02:13:34;;;;;;;;;;;;;;;;;;5052438;28;20007;-70
2021/06/06 02:16:00;;;;;;;;;;;;;;;;;;5051690;28;19925;-70
2021/06/06 02:18:27;;;;;;;;;;;;;;;;;;5051607;28;19935;-71
2021/06/06 02:20:53;;;;;;;;;;;;;;;;;;5051080;28;20312;-71
2021/06/06 02:23:20;;;;;;;;;;;;;;;;;;5050641;28;20562;-71
2021/06/06 02:25:46;;;;;;;;;;;;;;;;;;5051724;28;20004;-71
2021/06/06 02:28:13;;;;;;;;;;;;;;;;;;5052349;28;20372;-70
2021/06/06 02:30:39;;;;;;;;;;;;;;;;;;5051820;28;20012;-70
2021/06/06 02:33:06;;;;;;;;;;;;;;;;;;5051479;28;20411;-71
2021/06/06 02:35:32;;;;;;;;;;;;;;;;;;5051979;28;20377;-71
2021/06/06 02:37:59;;;;;;;;;;;;;;;;;;5051838;28;19924;-70
2021/06/06 02:40:25;;;;;;;;;;;;;;;;;;5050707;28;19929;-70
2021/06/06 02:42:52;;;;;;;;;;;;;;;;;;5051886;28;19924;-71
2021/06/06 02:45:18;;;;;;;;;;;;;;;;;;5050999;28;20444;-72
2021/06/06 02:47:45;;;;;;;;;;;;;;;;;;5051040;28;19935;-70
2021/06/06 02:50:11;;;;;;;;;;;;;;;;;;5054024;28;20366;-72
2021/06/06 02:52:41;;;;;;;;;;;;;;;;;;5051038;28;19925;-71
2021/06/06 02:55:08;;;;;;;;;;;;;;;;;;5050963;28;19948;-69
2021/06/06 02:57:34;;;;;;;;;;;;;;;;;;5050504;28;19974;-69
2021/06/06 03:00:01;;;;;;;;;;;;;;;;;;5050654;28;19956;-70
2021/06/06 03:02:27;;;;;;;;;;;;;;;;;;5051019;28;19989;-69
2021/06/06 03:04:54;;;;;;;;;;;;;;;;;;5051093;28;19931;-73
2021/06/06 03:07:20;;;;;;;;;;;;;;;;;;5061340;22;19925;-65
2021/06/06 03:09:47;;;;;;;;;;;;;;;;;;5036201;28;19925;-64
2021/06/06 03:12:13;;;;;;;;;;;;;;;;;;5023879;28;19925;-64
2021/06/06 03:14:41;;;;;;;;;;;;;;;;;;5033880;28;19929;-64
2021/06/06 03:17:07;;;;;;;;;;;;;;;;;;5019405;28;19925;-65
2021/06/06 03:19:34;;;;;;;;;;;;;;;;;;5027410;28;19925;-65
2021/06/06 03:22:00;;;;;;;;;;;;;;;;;;5022247;28;19994;-65
2021/06/06 03:24:27;;;;;;;;;;;;;;;;;;5025453;28;19925;-65
2021/06/06 03:26:54;;;;;;;;;;;;;;;;;;5033917;28;20300;-65
2021/06/06 03:29:20;;;;;;;;;;;;;;;;;;5018785;28;19932;-65
2021/06/06 03:31:46;;;;;;;;;;;;;;;;;;5022829;28;20444;-65
2021/06/06 03:34:13;;;;;;;;;;;;;;;;;;5020451;28;19925;-63
2021/06/06 03:36:39;;;;;;;;;;;;;;;;;;5033161;28;19960;-64
2021/06/06 03:39:06;;;;;;;;;;;;;;;;;;5030207;28;19925;-63
2021/06/06 03:41:32;;;;;;;;;;;;;;;;;;5027975;28;19934;-64
2021/06/06 03:43:59;;;;;;;;;;;;;;;;;;5026680;28;20217;-63
2021/06/06 03:46:25;;;;;;;;;;;;;;;;;;5016363;28;19925;-65
2021/06/06 03:48:52;;;;;;;;;;;;;;;;;;5033193;28;19926;-64
2021/06/06 03:51:18;;;;;;;;;;;;;;;;;;5027787;28;19929;-65
2021/06/06 03:53:45;;;;;;;;;;;;;;;;;;5031494;28;20416;-65
2021/06/06 03:56:11;;;;;;;;;;;;;;;;;;5029594;28;19925;-65
2021/06/06 03:58:38;;;;;;;;;;;;;;;;;;5019514;28;19933;-65
2021/06/06 04:01:04;;;;;;;;;;;;;;;;;;5026646;28;20396;-65
2021/06/06 04:03:31;;;;;;;;;;;;;;;;;;5021781;28;19955;-65
2021/06/06 04:05:57;;;;;;;;;;;;;;;;;;5024904;28;19929;-65
2021/06/06 04:08:24;;;;;;;;;;;;;;;;;;5030761;28;20393;-64
2021/06/06 04:10:50;;;;;;;;;;;;;;;;;;5029310;28;19925;-65
2021/06/06 04:13:17;;;;;;;;;;;;;;;;;;5025753;28;19925;-65
2021/06/06 04:15:43;;;;;;;;;;;;;;;;;;5029270;28;20409;-65
2021/06/06 04:18:10;;;;;;;;;;;;;;;;;;5024064;28;19928;-66
2021/06/06 04:20:36;;;;;;;;;;;;;;;;;;5029444;28;19925;-65
2021/06/06 04:23:02;;;;;;;;;;;;;;;;;;5028081;28;20382;-65
2021/06/06 04:25:29;;;;;;;;;;;;;;;;;;5031699;28;19941;-65
2021/06/06 04:27:55;;;;;;;;;;;;;;;;;;5029999;28;20399;-65
2021/06/06 04:30:22;;;;;;;;;;;;;;;;;;5024774;28;19940;-65
2021/06/06 04:32:48;;;;;;;;;;;;;;;;;;5025478;28;20315;-65
2021/06/06 04:35:15;;;;;;;;;;;;;;;;;;5029970;28;19929;-65
2021/06/06 04:37:41;;;;;;;;;;;;;;;;;;5031722;28;20398;-65
2021/06/06 04:40:09;;;;;;;;;;;;;;;;;;5030500;28;19929;-65
2021/06/06 04:42:36;;;;;;;;;;;;;;;;;;5025690;28;19984;-65
2021/06/06 04:45:02;;;;;;;;;;;;;;;;;;5025344;28;19925;-65
2021/06/06 04:47:29;;;;;;;;;;;;;;;;;;5027452;28;19932;-65
2021/06/06 04:49:55;;;;;;;;;;;;;;;;;;5018541;28;19925;-65
2021/06/06 04:52:21;;;;;;;;;;;;;;;;;;5021413;28;19932;-65
2021/06/06 04:54:48;;;;;;;;;;;;;;;;;;5031422;28;19952;-65
2021/06/06 04:57:14;;;;;;;;;;;;;;;;;;5030787;28;19931;-65
2021/06/06 04:59:41;;;;;;;;;;;;;;;;;;5028534;28;19933;-65
2021/06/06 05:02:09;;;;;;;;;;;;;;;;;;5028390;28;19952;-65
2021/06/06 05:04:35;;;;;;;;;;;;;;;;;;5024392;28;19926;-65
2021/06/06 05:07:02;;;;;;;;;;;;;;;;;;5025187;28;20380;-65
2021/06/06 05:09:28;;;;;;;;;;;;;;;;;;5031430;28;19936;-65
2021/06/06 05:11:55;;;;;;;;;;;;;;;;;;5030732;28;19925;-65
2021/06/06 05:14:21;;;;;;;;;;;;;;;;;;5022232;28;20377;-65
2021/06/06 05:16:48;;;;;;;;;;;;;;;;;;5028029;28;19929;-65
2021/06/06 05:19:14;;;;;;;;;;;;;;;;;;5019668;28;19925;-65
2021/06/06 05:21:41;;;;;;;;;;;;;;;;;;5022232;28;19925;-65
2021/06/06 05:24:07;;;;;;;;;;;;;;;;;;5028980;28;19932;-65
2021/06/06 05:26:33;;;;;;;;;;;;;;;;;;5029721;28;19929;-65
2021/06/06 05:29:00;;;;;;;;;;;;;;;;;;5030693;28;19925;-64
2021/06/06 05:31:26;;;;;;;;;;;;;;;;;;5018753;28;19925;-65
2021/06/06 05:33:53;;;;;;;;;;;;;;;;;;5028399;28;19936;-65
2021/06/06 05:36:19;;;;;;;;;;;;;;;;;;5029513;28;19933;-65
2021/06/06 05:38:46;;;;;;;;;;;;;;;;;;5024503;28;20015;-65
2021/06/06 05:41:12;;;;;;;;;;;;;;;;;;5026074;28;19925;-65
2021/06/06 05:43:38;;;;;;;;;;;;;;;;;;5024913;28;19925;-65
2021/06/06 05:46:05;;;;;;;;;;;;;;;;;;5016236;28;20392;-65
2021/06/06 05:48:31;;;;;;;;;;;;;;;;;;5029263;28;20368;-65
2021/06/06 05:50:58;;;;;;;;;;;;;;;;;;5023296;28;19936;-65
2021/06/06 05:53:24;;;;;;;;;;;;;;;;;;5024372;28;19939;-65
2021/06/06 05:55:50;;;;;;;;;;;;;;;;;;5022426;28;19925;-65
2021/06/06 05:58:17;;;;;;;;;;;;;;;;;;5023940;28;19932;-64
2021/06/06 06:00:43;;;;;;;;;;;;;;;;;;5030114;28;19925;-65
2021/06/06 06:03:10;;;;;;;;;;;;;;;;;;5026285;28;20296;-65
2021/06/06 06:05:36;;;;;;;;;;;;;;;;;;5029493;28;20374;-65
2021/06/06 06:08:03;;;;;;;;;;;;;;;;;;5027771;28;19952;-65
2021/06/06 06:10:29;;;;;;;;;;;;;;;;;;5029328;28;20015;-65
2021/06/06 06:12:56;;;;;;;;;;;;;;;;;;5025237;28;19925;-65
2021/06/06 06:15:22;;;;;;;;;;;;;;;;;;5022444;28;19929;-65
2021/06/06 06:17:48;;;;;;;;;;;;;;;;;;5027222;28;19925;-65
2021/06/06 06:20:15;;;;;;;;;;;;;;;;;;5022683;28;19933;-65
2021/06/06 06:22:41;;;;;;;;;;;;;;;;;;5026978;28;19991;-65
2021/06/06 06:25:08;;;;;;;;;;;;;;;;;;5028481;28;19933;-64
2021/06/06 06:27:34;;;;;;;;;;;;;;;;;;5027942;28;19936;-65
2021/06/06 06:30:00;;;;;;;;;;;;;;;;;;5028781;28;19932;-66
2021/06/06 06:32:29;;;;;;;;;;;;;;;;;;5027782;28;19931;-66
2021/06/06 06:34:55;;;;;;;;;;;;;;;;;;5023377;28;20313;-66
2021/06/06 06:37:22;;;;;;;;;;;;;;;;;;5026943;28;19968;-66
2021/06/06 06:39:49;;;;;;;;;;;;;;;;;;5028251;28;20270;-67
2021/06/06 06:42:16;;;;;;;;;;;;;;;;;;5026701;28;20377;-66
2021/06/06 06:44:42;;;;;;;;;;;;;;;;;;5028081;28;20668;-66
2021/06/06 06:47:09;;;;;;;;;;;;;;;;;;5029759;28;20379;-65
2021/06/06 06:49:35;;;;;;;;;;;;;;;;;;5033849;28;19932;-66
2021/06/06 06:52:02;;;;;;;;;;;;;;;;;;5033670;28;19929;-66
2021/06/06 06:54:28;;;;;;;;;;;;;;;;;;5026106;28;20189;-66
2021/06/06 06:56:55;;;;;;;;;;;;;;;;;;5030824;28;20012;-66
2021/06/06 06:59:27;;;;;;;;;;;;;;;;;;5028628;28;19991;-67
2021/06/06 07:01:53;;;;;;;;;;;;;;;;;;5029600;28;19925;-67
2021/06/06 07:04:20;;;;;;;;;;;;;;;;;;5027693;28;19925;-66
2021/06/06 07:06:46;;;;;;;;;;;;;;;;;;5030046;28;19925;-66
2021/06/06 07:09:13;;;;;;;;;;;;;;;;;;5031814;28;19996;-66
2021/06/06 07:11:39;;;;;;;;;;;;;;;;;;5032063;28;19969;-66
2021/06/06 07:14:05;;;;;;;;;;;;;;;;;;5021160;28;19937;-66
2021/06/06 07:16:32;;;;;;;;;;;;;;;;;;5026919;28;19931;-66
2021/06/06 07:18:58;;;;;;;;;;;;;;;;;;5027190;28;19925;-66
2021/06/06 07:21:25;;;;;;;;;;;;;;;;;;5031459;28;19925;-66
2021/06/06 07:23:51;;;;;;;;;;;;;;;;;;5028179;28;19936;-61
2021/06/06 07:26:18;;;;;;;;;;;;;;;;;;5032973;28;19929;-62
2021/06/06 07:28:45;;;;;;;;;;;;;;;;;;5024352;28;19925;-63
2021/06/06 07:31:11;;;;;;;;;;;;;;;;;;5025986;28;19925;-61
2021/06/06 07:33:38;;;;;;;;;;;;;;;;;;5027749;28;19935;-62
2021/06/06 07:36:04;;;;;;;;;;;;;;;;;;5026594;28;19925;-62
2021/06/06 07:38:31;;;;;;;;;;;;;;;;;;5032658;28;19925;-62
2021/06/06 07:40:57;;;;;;;;;;;;;;;;;;5031290;28;19932;-63
2021/06/06 07:43:23;;;;;;;;;;;;;;;;;;5032442;28;20389;-63
2021/06/06 07:45:50;;;;;;;;;;;;;;;;;;5022719;28;19925;-62
2021/06/06 07:48:16;;;;;;;;;;;;;;;;;;5019635;28;19924;-62
2021/06/06 07:50:43;;;;;;;;;;;;;;;;;;5023338;28;19979;-62
2021/06/06 07:53:09;;;;;;;;;;;;;;;;;;5027847;28;19925;-63
2021/06/06 07:55:36;;;;;;;;;;;;;;;;;;5028822;28;19933;-62
2021/06/06 07:58:02;;;;;;;;;;;;;;;;;;5029770;28;19925;-62
2021/06/06 08:00:29;;;;;;;;;;;;;;;;;;5025841;28;19925;-63
2021/06/06 08:02:55;;;;;;;;;;;;;;;;;;5025531;28;19932;-63
2021/06/06 08:05:22;;;;;;;;;;;;;;;;;;5031829;28;19976;-62
2021/06/06 08:07:48;;;;;;;;;;;;;;;;;;5034223;28;19929;-63
2021/06/06 08:10:14;;;;;;;;;;;;;;;;;;5033230;28;19931;-66
2021/06/06 08:12:41;;;;;;;;;;;;;;;;;;5026931;28;19925;-66
2021/06/06 08:15:07;;;;;;;;;;;;;;;;;;5029619;28;19936;-66
2021/06/06 08:17:34;;;;;;;;;;;;;;;;;;5017876;28;20020;-66
2021/06/06 08:20:00;;;;;;;;;;;;;;;;;;5025223;28;19980;-66
2021/06/06 08:22:27;;;;;;;;;;;;;;;;;;5023074;28;19929;-66
2021/06/06 08:24:53;;;;;;;;;;;;;;;;;;5026491;28;19929;-66
2021/06/06 08:27:19;;;;;;;;;;;;;;;;;;5027700;28;19948;-66
2021/06/06 08:29:46;;;;;;;;;;;;;;;;;;5031235;28;21372;-66
2021/06/06 08:32:12;;;;;;;;;;;;;;;;;;5028175;28;19979;-65
2021/06/06 08:34:39;;;;;;;;;;;;;;;;;;5022484;28;19933;-66
2021/06/06 08:37:06;;;;;;;;;;;;;;;;;;5025451;28;19932;-65
2021/06/06 08:39:33;;;;;;;;;;;;;;;;;;5027380;28;19928;-66
2021/06/06 08:41:59;;;;;;;;;;;;;;;;;;5029073;28;19929;-66
2021/06/06 08:44:25;;;;;;;;;;;;;;;;;;5030052;28;19925;-65
2021/06/06 08:46:52;;;;;;;;;;;;;;;;;;5029065;28;19932;-66
2021/06/06 08:49:18;;;;;;;;;;;;;;;;;;5022638;28;20210;-66
2021/06/06 08:51:45;;;;;;;;;;;;;;;;;;5029860;28;19925;-66
2021/06/06 08:54:11;;;;;;;;;;;;;;;;;;5025389;28;20012;-66
2021/06/06 08:56:38;;;;;;;;;;;;;;;;;;5030894;28;19928;-65
2021/06/06 08:59:04;;;;;;;;;;;;;;;;;;5021696;28;19926;-65
2021/06/06 09:01:31;;;;;;;;;;;;;;;;;;5020483;28;19929;-66
2021/06/06 09:03:57;;;;;;;;;;;;;;;;;;5024166;28;19977;-66
2021/06/06 09:06:23;;;;;;;;;;;;;;;;;;5045978;22;19913;-71
2021/06/06 09:08:50;;;;;;;;;;;;;;;;;;5041001;28;19960;-69
2021/06/06 09:11:17;;;;;;;;;;;;;;;;;;5040407;28;19925;-68
2021/06/06 09:13:44;;;;;;;;;;;;;;;;;;5034216;28;20020;-70
2021/06/06 09:16:10;;;;;;;;;;;;;;;;;;5034146;28;19925;-69
2021/06/06 09:18:37;;;;;;;;;;;;;;;;;;5036304;28;19972;-70
2021/06/06 09:21:03;;;;;;;;;;;;;;;;;;5038879;28;20282;-71
2021/06/06 09:23:30;;;;;;;;;;;;;;;;;;5027192;28;19980;-70
2021/06/06 09:25:56;;;;;;;;;;;;;;;;;;5026743;28;19976;-69
2021/06/06 09:28:23;;;;;;;;;;;;;;;;;;5019301;28;20384;-69
2021/06/06 09:30:49;;;;;;;;;;;;;;;;;;5035858;28;20059;-67
2021/06/06 09:33:16;;;;;;;;;;;;;;;;;;5033226;28;19935;-69
2021/06/06 09:35:43;;;;;;;;;;;;;;;;;;5025648;28;20435;-68
2021/06/06 09:38:09;;;;;;;;;;;;;;;;;;5028972;28;20383;-69
2021/06/06 09:40:36;;;;;;;;;;;;;;;;;;5024306;28;19925;-71
2021/06/06 09:43:02;;;;;;;;;;;;;;;;;;5025487;28;20395;-70
2021/06/06 09:45:28;;;;;;;;;;;;;;;;;;5023534;28;19925;-69
2021/06/06 09:47:55;;;;;;;;;;;;;;;;;;5023033;28;19956;-68
2021/06/06 09:50:21;;;;;;;;;;;;;;;;;;5023207;28;20586;-69
2021/06/06 09:52:48;;;;;;;;;;;;;;;;;;5026085;28;19932;-69
2021/06/06 09:55:14;;;;;;;;;;;;;;;;;;5026684;28;19925;-69
2021/06/06 09:57:42;;;;;;;;;;;;;;;;;;5025402;28;19971;-69
2021/06/06 10:00:09;;;;;;;;;;;;;;;;;;5023171;28;19929;-69
2021/06/06 10:02:36;;;;;;;;;;;;;;;;;;5024920;28;20016;-69
2021/06/06 10:05:02;;;;;;;;;;;;;;;;;;5029262;28;19930;-69
2021/06/06 10:07:28;;;;;;;;;;;;;;;;;;5032890;28;20304;-69
2021/06/06 10:09:55;;;;;;;;;;;;;;;;;;5026124;28;19947;-70
2021/06/06 10:12:21;;;;;;;;;;;;;;;;;;5028391;28;19935;-69
2021/06/06 10:14:48;;;;;;;;;;;;;;;;;;5025065;28;19926;-69
2021/06/06 10:17:14;;;;;;;;;;;;;;;;;;5024945;28;20027;-70
2021/06/06 10:19:41;;;;;;;;;;;;;;;;;;5022624;28;19925;-70
2021/06/06 10:22:07;;;;;;;;;;;;;;;;;;5024280;28;20012;-69
2021/06/06 10:24:34;;;;;;;;;;;;;;;;;;5027839;28;20015;-68
2021/06/06 10:27:00;;;;;;;;;;;;;;;;;;5027907;28;19981;-69
2021/06/06 10:29:27;;;;;;;;;;;;;;;;;;5026259;28;19925;-70
2021/06/06 10:31:53;;;;;;;;;;;;;;;;;;5026540;28;20402;-70
2021/06/06 10:34:20;;;;;;;;;;;;;;;;;;5022701;28;20020;-70
2021/06/06 10:36:46;;;;;;;;;;;;;;;;;;5027791;28;19983;-70
2021/06/06 10:39:13;;;;;;;;;;;;;;;;;;5021767;28;19926;-71
2021/06/06 10:41:41;;;;;;;;;;;;;;;;;;5021976;28;19929;-69
2021/06/06 10:44:08;;;;;;;;;;;;;;;;;;5025994;28;21339;-69
2021/06/06 10:46:34;;;;;;;;;;;;;;;;;;5021111;28;19988;-70
2021/06/06 10:49:01;;;;;;;;;;;;;;;;;;5026387;28;19932;-70
2021/06/06 10:51:27;;;;;;;;;;;;;;;;;;5030365;28;19941;-70
2021/06/06 10:53:54;;;;;;;;;;;;;;;;;;5030450;28;20003;-68
2021/06/06 10:56:20;;;;;;;;;;;;;;;;;;5019294;28;19930;-68
2021/06/06 10:58:47;;;;;;;;;;;;;;;;;;5023142;28;20408;-69
2021/06/06 11:01:13;;;;;;;;;;;;;;;;;;5024632;28;19932;-70
2021/06/06 11:03:40;;;;;;;;;;;;;;;;;;5023279;28;19932;-70
2021/06/06 11:06:06;;;;;;;;;;;;;;;;;;5023973;28;19932;-70
2021/06/06 11:08:34;;;;;;;;;;;;;;;;;;5030663;28;19978;-70
2021/06/06 11:11:01;;;;;;;;;;;;;;;;;;5026262;28;20416;-70
2021/06/06 11:13:27;;;;;;;;;;;;;;;;;;5023707;28;19925;-69
2021/06/06 11:15:54;;;;;;;;;;;;;;;;;;5026930;28;19934;-69
2021/06/06 11:18:20;;;;;;;;;;;;;;;;;;5026465;28;19937;-69
2021/06/06 11:20:47;;;;;;;;;;;;;;;;;;5022176;28;20300;-69
2021/06/06 11:23:13;;;;;;;;;;;;;;;;;;5025835;28;19983;-69
2021/06/06 11:25:40;;;;;;;;;;;;;;;;;;5028359;28;19947;-70
2021/06/06 11:28:08;;;;;;;;;;;;;;;;;;5026313;28;20305;-69
2021/06/06 11:30:35;;;;;;;;;;;;;;;;;;5026823;28;20412;-69
2021/06/06 11:33:01;;;;;;;;;;;;;;;;;;5026322;28;19925;-71
2021/06/06 11:35:28;;;;;;;;;;;;;;;;;;5030758;28;20381;-70
2021/06/06 11:37:54;;;;;;;;;;;;;;;;;;5042410;28;20009;-69
2021/06/06 11:40:21;;;;;;;;;;;;;;;;;;5032791;28;19939;-70
2021/06/06 11:42:47;;;;;;;;;;;;;;;;;;5028454;28;19935;-71
2021/06/06 11:45:14;;;;;;;;;;;;;;;;;;5027358;28;19925;-70
2021/06/06 11:47:40;;;;;;;;;;;;;;;;;;5027189;28;20048;-69
2021/06/06 11:50:07;;;;;;;;;;;;;;;;;;5027034;28;19929;-67
2021/06/06 11:52:34;;;;;;;;;;;;;;;;;;5031229;28;19925;-68
2021/06/06 11:55:01;;;;;;;;;;;;;;;;;;5035685;28;19925;-67
2021/06/06 11:57:28;;;;;;;;;;;;;;;;;;5036092;28;20411;-68
2021/06/06 11:59:54;;;;;;;;;;;;;;;;;;5033545;28;19932;-68
2021/06/06 12:02:21;;;;;;;;;;;;;;;;;;5028969;28;19978;-67
2021/06/06 12:04:47;;;;;;;;;;;;;;;;;;5023695;28;20365;-67
2021/06/06 12:07:14;;;;;;;;;;;;;;;;;;5026499;28;19925;-70
2021/06/06 12:09:41;;;;;;;;;;;;;;;;;;5022062;28;20062;-69
2021/06/06 12:12:08;;;;;;;;;;;;;;;;;;5025785;28;19925;-69
2021/06/06 12:14:34;;;;;;;;;;;;;;;;;;5029124;28;19929;-69
2021/06/06 12:17:01;;;;;;;;;;;;;;;;;;5028664;28;20356;-69
2021/06/06 12:19:27;;;;;;;;;;;;;;;;;;5028542;28;19971;-69
2021/06/06 12:21:54;;;;;;;;;;;;;;;;;;5027390;28;20071;-68
2021/06/06 12:24:21;;;;;;;;;;;;;;;;;;5038388;28;19965;-69
2021/06/06 12:26:47;;;;;;;;;;;;;;;;;;5030942;28;19924;-70
2021/06/06 12:29:14;;;;;;;;;;;;;;;;;;5027906;28;19925;-69
2021/06/06 12:31:41;;;;;;;;;;;;;;;;;;5024335;28;19925;-70
2021/06/06 12:34:07;;;;;;;;;;;;;;;;;;5025853;28;19931;-68
2021/06/06 12:36:34;;;;;;;;;;;;;;;;;;5024473;28;19925;-68
2021/06/06 12:39:00;;;;;;;;;;;;;;;;;;5020466;28;20008;-70
2021/06/06 12:41:27;;;;;;;;;;;;;;;;;;5024393;28;19932;-68
2021/06/06 12:43:53;;;;;;;;;;;;;;;;;;5027515;28;20300;-70
2021/06/06 12:46:20;;;;;;;;;;;;;;;;;;5023036;28;19929;-68
2021/06/06 12:48:46;;;;;;;;;;;;;;;;;;5022734;28;20027;-69
2021/06/06 12:51:13;;;;;;;;;;;;;;;;;;5024383;28;19976;-69
2021/06/06 12:53:39;;;;;;;;;;;;;;;;;;5025401;28;19963;-69
2021/06/06 12:56:06;;;;;;;;;;;;;;;;;;5024435;28;19933;-69
2021/06/06 12:58:32;;;;;;;;;;;;;;;;;;5023306;28;20024;-70
2021/06/06 13:00:59;;;;;;;;;;;;;;;;;;5026665;28;20403;-67
2021/06/06 13:03:25;;;;;;;;;;;;;;;;;;5024281;28;19925;-68
2021/06/06 13:05:52;;;;;;;;;;;;;;;;;;5027122;28;19973;-68
2021/06/06 13:08:18;;;;;;;;;;;;;;;;;;5026517;28;19926;-69
2021/06/06 13:10:45;;;;;;;;;;;;;;;;;;5029831;28;19926;-69
2021/06/06 13:13:11;;;;;;;;;;;;;;;;;;5033178;28;19936;-69
2021/06/06 13:15:38;;;;;;;;;;;;;;;;;;5026042;28;19925;-69
2021/06/06 13:18:04;;;;;;;;;;;;;;;;;;5024846;28;19972;-70
2021/06/06 13:20:31;;;;;;;;;;;;;;;;;;5022682;28;19951;-69
2021/06/06 13:22:57;;;;;;;;;;;;;;;;;;5024027;28;20389;-69
2021/06/06 13:25:24;;;;;;;;;;;;;;;;;;5022350;28;19926;-69
2021/06/06 13:27:50;;;;;;;;;;;;;;;;;;5026012;28;20016;-69
2021/06/06 13:30:17;;;;;;;;;;;;;;;;;;5021208;28;20017;-70
2021/06/06 13:32:43;;;;;;;;;;;;;;;;;;5023473;28;20033;-70
2021/06/06 13:35:10;;;;;;;;;;;;;;;;;;5026758;28;19925;-70
2021/06/06 13:37:38;;;;;;;;;;;;;;;;;;5027054;28;19962;-69
2021/06/06 13:40:05;;;;;;;;;;;;;;;;;;5023456;28;19933;-70
2021/06/06 13:42:31;;;;;;;;;;;;;;;;;;5023239;28;19982;-70
2021/06/06 13:44:58;;;;;;;;;;;;;;;;;;5025848;28;20008;-70
2021/06/06 13:47:24;;;;;;;;;;;;;;;;;;5023423;28;20367;-70
2021/06/06 13:49:51;;;;;;;;;;;;;;;;;;5021170;28;19932;-71
2021/06/06 13:52:17;;;;;;;;;;;;;;;;;;5017421;28;19925;-70
2021/06/06 13:54:44;;;;;;;;;;;;;;;;;;5021060;28;19929;-70
2021/06/06 13:57:10;;;;;;;;;;;;;;;;;;5034547;28;19948;-69
2021/06/06 13:59:37;;;;;;;;;;;;;;;;;;5028238;28;20302;-70
2021/06/06 14:02:03;;;;;;;;;;;;;;;;;;5021623;28;20024;-70
2021/06/06 14:04:30;;;;;;;;;;;;;;;;;;5022839;28;19929;-70
2021/06/06 14:06:56;;;;;;;;;;;;;;;;;;5022736;28;20385;-68
2021/06/06 14:09:23;;;;;;;;;;;;;;;;;;5020763;28;19983;-68
2021/06/06 14:11:49;;;;;;;;;;;;;;;;;;5022220;28;20052;-68
2021/06/06 14:14:16;;;;;;;;;;;;;;;;;;5027440;28;19964;-68
2021/06/06 14:16:42;;;;;;;;;;;;;;;;;;5022019;28;20397;-69
2021/06/06 14:19:09;;;;;;;;;;;;;;;;;;5025546;28;20409;-70
2021/06/06 14:21:35;;;;;;;;;;;;;;;;;;5023668;28;19931;-70
2021/06/06 14:24:02;;;;;;;;;;;;;;;;;;5023519;28;20421;-70
2021/06/06 14:26:28;;;;;;;;;;;;;;;;;;5021671;28;19933;-69
2021/06/06 14:28:55;;;;;;;;;;;;;;;;;;5024887;28;19983;-70
2021/06/06 14:31:21;;;;;;;;;;;;;;;;;;5018215;28;19981;-69
2021/06/06 14:33:50;;;;;;;;;;;;;;;;;;5025306;28;19965;-69
2021/06/06 14:36:16;;;;;;;;;;;;;;;;;;5028114;28;20335;-72
2021/06/06 14:38:43;;;;;;;;;;;;;;;;;;5024895;28;19926;-71
2021/06/06 14:41:09;;;;;;;;;;;;;;;;;;5031544;28;19926;-72
2021/06/06 14:43:36;;;;;;;;;;;;;;;;;;5044422;28;19925;-68
2021/06/06 14:46:02;;;;;;;;;;;;;;;;;;5021953;28;20012;-69
2021/06/06 14:48:31;;;;;;;;;;;;;;;;;;5018923;28;20424;-70
2021/06/06 14:50:58;;;;;;;;;;;;;;;;;;5019880;28;19925;-69
2021/06/06 14:53:25;;;;;;;;;;;;;;;;;;5029415;28;19925;-69
2021/06/06 14:55:52;;;;;;;;;;;;;;;;;;5021408;28;19936;-69
2021/06/06 14:58:18;;;;;;;;;;;;;;;;;;5017075;28;19925;-69
2021/06/06 15:00:45;;;;;;;;;;;;;;;;;;5026013;28;20066;-69
2021/06/06 15:03:11;;;;;;;;;;;;;;;;;;5028760;28;19944;-69
2021/06/06 15:05:38;;;;;;;;;;;;;;;;;;5032015;28;19939;-69
2021/06/06 15:08:07;;;;;;;;;;;;;;;;;;5057606;22;19964;-65
2021/06/06 15:10:33;;;;;;;;;;;;;;;;;;5047237;28;19936;-66
2021/06/06 15:12:59;;;;;;;;;;;;;;;;;;5044385;28;19947;-66
2021/06/06 15:15:26;;;;;;;;;;;;;;;;;;5048287;28;19932;-66
2021/06/06 15:17:52;;;;;;;;;;;;;;;;;;5042366;28;19955;-67
2021/06/06 15:20:21;;;;;;;;;;;;;;;;;;5028231;28;19975;-65
2021/06/06 15:22:48;;;;;;;;;;;;;;;;;;5028229;28;19925;-66
2021/06/06 15:25:17;;;;;;;;;;;;;;;;;;5030298;28;20308;-66
2021/06/06 15:27:43;;;;;;;;;;;;;;;;;;5029047;28;20321;-65
2021/06/06 15:30:10;;;;;;;;;;;;;;;;;;5029352;28;19925;-66
2021/06/06 15:32:36;;;;;;;;;;;;;;;;;;5033630;28;19953;-66
2021/06/06 15:35:03;;;;;;;;;;;;;;;;;;5028388;28;19968;-67
2021/06/06 15:37:29;;;;;;;;;;;;;;;;;;5030029;28;19944;-67
2021/06/06 15:39:56;;;;;;;;;;;;;;;;;;5029115;28;20291;-66
2021/06/06 15:42:22;;;;;;;;;;;;;;;;;;5029284;28;20020;-66
2021/06/06 15:44:49;;;;;;;;;;;;;;;;;;5026686;28;19932;-66
2021/06/06 15:47:15;;;;;;;;;;;;;;;;;;5026863;28;19931;-66
2021/06/06 15:49:42;;;;;;;;;;;;;;;;;;5028353;28;19983;-66
2021/06/06 15:52:08;;;;;;;;;;;;;;;;;;5028953;28;20407;-66
2021/06/06 15:54:36;;;;;;;;;;;;;;;;;;5029507;28;19925;-67
2021/06/06 15:57:05;;;;;;;;;;;;;;;;;;5026705;28;20107;-67
2021/06/06 15:59:32;;;;;;;;;;;;;;;;;;5028538;28;20294;-67
2021/06/06 16:01:59;;;;;;;;;;;;;;;;;;5029303;28;19929;-66
2021/06/06 16:04:25;;;;;;;;;;;;;;;;;;5029743;28;19924;-66
2021/06/06 16:06:52;;;;;;;;;;;;;;;;;;5031423;28;19971;-67
2021/06/06 16:09:18;;;;;;;;;;;;;;;;;;5025630;28;20377;-65
2021/06/06 16:11:45;;;;;;;;;;;;;;;;;;5029057;28;19937;-66
2021/06/06 16:14:11;;;;;;;;;;;;;;;;;;5029036;28;20405;-66
2021/06/06 16:16:38;;;;;;;;;;;;;;;;;;5027469;28;20016;-66
2021/06/06 16:19:04;;;;;;;;;;;;;;;;;;5027662;28;19925;-67
2021/06/06 16:21:31;;;;;;;;;;;;;;;;;;5030716;28;20575;-66
2021/06/06 16:23:57;;;;;;;;;;;;;;;;;;5025601;28;19939;-67
2021/06/06 16:26:24;;;;;;;;;;;;;;;;;;5027065;28;19969;-67
2021/06/06 16:28:51;;;;;;;;;;;;;;;;;;5028431;28;19934;-67
2021/06/06 16:31:17;;;;;;;;;;;;;;;;;;5028404;28;19933;-67
2021/06/06 16:33:46;;;;;;;;;;;;;;;;;;5030015;28;19933;-66
2021/06/06 16:36:12;;;;;;;;;;;;;;;;;;5026952;28;20308;-67
2021/06/06 16:38:39;;;;;;;;;;;;;;;;;;5028004;28;19932;-68
2021/06/06 16:41:05;;;;;;;;;;;;;;;;;;5028418;28;20016;-67